<?xml version="1.0" encoding="UTF-8" standalone="no" ?>
<gpx xmlns="http://www.topografix.com/GPX/1/1" xmlns:xsi="http://www.w3.org/2001/XMLSchema-instance" xsi:schemaLocation="http://www.topografix.com/GPX/1/1 http://www.topografix.com/GPX/1/1/gpx.xsd" version="1.1" creator="VisuGPX - https://www.visugpx.com">
  <metadata>
    <name>Lac de Crop - Le Rafour - Orionde (Belledonne)</name>
    <desc><![CDATA[Depuis Prabert, suivre le flux des randonneurs jusqu'au lac de Crop!.
Monter les pentes Est non tracées au début puis jusqu'à un petit collu. De là suivre la croupe montante vers l'est quelques mètres. Par une traversée Sud-Sud Est un peu expo par endroit, on rejoint le Rafour. Orionde et la descente sur Prabert se fait par une chemin peu tracé mais bien visible.
.
photos là: [url]https://goo.gl/photos/BSbHcXtioM3typZi6[/url]
.
Autres sorties dans Belledonne : [url]https://www.visugpx.com/membres/87/belledonne/[/url]]]></desc>
  </metadata>
  <trk>
    <name><![CDATA[2015-08-30 09:59]]></name>
    <desc><![CDATA[<h1>OruxMaps</h1><br /><hr align="center" width="480" style="height: 2px; width: 517px"/><h2>Nom: 2015-08-30 09:59</h2><br /><p>Temps de départ: 08/30/2015 09:59</p><p>Temps d'arrivée: 08/30/2015 14:58</p><p>Distance: 9,2km (04:58)</p><p>Temps déplacement: 03:54</p><p>Vitesse moyenne: 1,8km/h</p><p>Vitesse moyenne: 2,3km/h</p><p>Vitess Max.: 11km/h</p><p>Altitude minimale: 1281m</p><p>Altitude maximale: 2185m</p><p>Vitesse d'élévation: 467,5m/h</p><p>Vitesse de descente: -591,8m/h</p><p>Gain Altitude: 950m</p><p>Perte Altitude: -986m</p><p>Temps d'élévation: 02:01</p><p>Temps de descente: 01:40</p><hr align="center" width="480" style="height: 2px; width: 517px"/>]]></desc>
    <trkseg>
      <trkpt lat="45.22649" lon="5.99426">
        <ele>1311.65</ele>
        <time>2015-08-30T07:59:32Z</time>
      </trkpt>
      <trkpt lat="45.22667" lon="5.99412">
        <ele>1312.06</ele>
        <time>2015-08-30T07:59:55Z</time>
      </trkpt>
      <trkpt lat="45.22649" lon="5.99404">
        <ele>1313.66</ele>
        <time>2015-08-30T08:00:54Z</time>
      </trkpt>
      <trkpt lat="45.22628" lon="5.994">
        <ele>1302.73</ele>
        <time>2015-08-30T08:01:12Z</time>
      </trkpt>
      <trkpt lat="45.22609" lon="5.99389">
        <ele>1307.59</ele>
        <time>2015-08-30T08:01:34Z</time>
      </trkpt>
      <trkpt lat="45.22591" lon="5.99384">
        <ele>1308.39</ele>
        <time>2015-08-30T08:01:52Z</time>
      </trkpt>
      <trkpt lat="45.22572" lon="5.99381">
        <ele>1303.61</ele>
        <time>2015-08-30T08:02:10Z</time>
      </trkpt>
      <trkpt lat="45.22553" lon="5.9938">
        <ele>1300.78</ele>
        <time>2015-08-30T08:02:32Z</time>
      </trkpt>
      <trkpt lat="45.22537" lon="5.99392">
        <ele>1305.03</ele>
        <time>2015-08-30T08:03:02Z</time>
      </trkpt>
      <trkpt lat="45.22523" lon="5.9941">
        <ele>1303.02</ele>
        <time>2015-08-30T08:03:20Z</time>
      </trkpt>
      <trkpt lat="45.22516" lon="5.99435">
        <ele>1295.55</ele>
        <time>2015-08-30T08:03:36Z</time>
      </trkpt>
      <trkpt lat="45.22515" lon="5.99462">
        <ele>1300.73</ele>
        <time>2015-08-30T08:03:54Z</time>
      </trkpt>
      <trkpt lat="45.22509" lon="5.99488">
        <ele>1305.24</ele>
        <time>2015-08-30T08:04:48Z</time>
      </trkpt>
      <trkpt lat="45.22501" lon="5.99514">
        <ele>1294.74</ele>
        <time>2015-08-30T08:04:56Z</time>
      </trkpt>
      <trkpt lat="45.22485" lon="5.99531">
        <ele>1297.74</ele>
        <time>2015-08-30T08:05:03Z</time>
      </trkpt>
      <trkpt lat="45.22475" lon="5.99554">
        <ele>1301.93</ele>
        <time>2015-08-30T08:05:12Z</time>
      </trkpt>
      <trkpt lat="45.22465" lon="5.99582">
        <ele>1300.57</ele>
        <time>2015-08-30T08:05:28Z</time>
      </trkpt>
      <trkpt lat="45.2246" lon="5.99607">
        <ele>1300.64</ele>
        <time>2015-08-30T08:05:42Z</time>
      </trkpt>
      <trkpt lat="45.22446" lon="5.99629">
        <ele>1296.3</ele>
        <time>2015-08-30T08:05:58Z</time>
      </trkpt>
      <trkpt lat="45.22435" lon="5.99652">
        <ele>1298.51</ele>
        <time>2015-08-30T08:06:16Z</time>
      </trkpt>
      <trkpt lat="45.22417" lon="5.99652">
        <ele>1298.03</ele>
        <time>2015-08-30T08:06:30Z</time>
      </trkpt>
      <trkpt lat="45.22398" lon="5.99646">
        <ele>1306.18</ele>
        <time>2015-08-30T08:06:48Z</time>
      </trkpt>
      <trkpt lat="45.22381" lon="5.99636">
        <ele>1308.04</ele>
        <time>2015-08-30T08:07:02Z</time>
      </trkpt>
      <trkpt lat="45.22365" lon="5.99625">
        <ele>1304.4</ele>
        <time>2015-08-30T08:07:18Z</time>
      </trkpt>
      <trkpt lat="45.22347" lon="5.99616">
        <ele>1304.03</ele>
        <time>2015-08-30T08:07:34Z</time>
      </trkpt>
      <trkpt lat="45.2233" lon="5.99605">
        <ele>1302.13</ele>
        <time>2015-08-30T08:07:56Z</time>
      </trkpt>
      <trkpt lat="45.22316" lon="5.99585">
        <ele>1303.3</ele>
        <time>2015-08-30T08:08:32Z</time>
      </trkpt>
      <trkpt lat="45.22298" lon="5.99581">
        <ele>1307.56</ele>
        <time>2015-08-30T08:08:44Z</time>
      </trkpt>
      <trkpt lat="45.22282" lon="5.99593">
        <ele>1320.03</ele>
        <time>2015-08-30T08:09:46Z</time>
      </trkpt>
      <trkpt lat="45.22271" lon="5.99615">
        <ele>1324.6</ele>
        <time>2015-08-30T08:10:16Z</time>
      </trkpt>
      <trkpt lat="45.22261" lon="5.99637">
        <ele>1333.05</ele>
        <time>2015-08-30T08:10:40Z</time>
      </trkpt>
      <trkpt lat="45.22244" lon="5.99647">
        <ele>1330.15</ele>
        <time>2015-08-30T08:11:02Z</time>
      </trkpt>
      <trkpt lat="45.22225" lon="5.99644">
        <ele>1340.12</ele>
        <time>2015-08-30T08:11:30Z</time>
      </trkpt>
      <trkpt lat="45.22205" lon="5.99638">
        <ele>1343.74</ele>
        <time>2015-08-30T08:12:00Z</time>
      </trkpt>
      <trkpt lat="45.22187" lon="5.99632">
        <ele>1352.07</ele>
        <time>2015-08-30T08:12:42Z</time>
      </trkpt>
      <trkpt lat="45.2217" lon="5.99642">
        <ele>1373.27</ele>
        <time>2015-08-30T08:13:24Z</time>
      </trkpt>
      <trkpt lat="45.22153" lon="5.99652">
        <ele>1373.51</ele>
        <time>2015-08-30T08:13:58Z</time>
      </trkpt>
      <trkpt lat="45.22134" lon="5.99647">
        <ele>1372.49</ele>
        <time>2015-08-30T08:14:24Z</time>
      </trkpt>
      <trkpt lat="45.22115" lon="5.9964">
        <ele>1374.77</ele>
        <time>2015-08-30T08:14:48Z</time>
      </trkpt>
      <trkpt lat="45.22099" lon="5.99625">
        <ele>1379.49</ele>
        <time>2015-08-30T08:15:00Z</time>
      </trkpt>
      <trkpt lat="45.22087" lon="5.99602">
        <ele>1381.71</ele>
        <time>2015-08-30T08:15:14Z</time>
      </trkpt>
      <trkpt lat="45.22071" lon="5.99585">
        <ele>1381.72</ele>
        <time>2015-08-30T08:15:28Z</time>
      </trkpt>
      <trkpt lat="45.22053" lon="5.99577">
        <ele>1387.08</ele>
        <time>2015-08-30T08:15:44Z</time>
      </trkpt>
      <trkpt lat="45.22035" lon="5.9957">
        <ele>1390.65</ele>
        <time>2015-08-30T08:16:00Z</time>
      </trkpt>
      <trkpt lat="45.22017" lon="5.99567">
        <ele>1395.73</ele>
        <time>2015-08-30T08:16:22Z</time>
      </trkpt>
      <trkpt lat="45.21998" lon="5.99562">
        <ele>1396.36</ele>
        <time>2015-08-30T08:16:42Z</time>
      </trkpt>
      <trkpt lat="45.21981" lon="5.99555">
        <ele>1396.91</ele>
        <time>2015-08-30T08:17:00Z</time>
      </trkpt>
      <trkpt lat="45.21963" lon="5.99542">
        <ele>1400.45</ele>
        <time>2015-08-30T08:17:16Z</time>
      </trkpt>
      <trkpt lat="45.2195" lon="5.99523">
        <ele>1396.5</ele>
        <time>2015-08-30T08:17:32Z</time>
      </trkpt>
      <trkpt lat="45.2194" lon="5.99502">
        <ele>1395.53</ele>
        <time>2015-08-30T08:17:46Z</time>
      </trkpt>
      <trkpt lat="45.21924" lon="5.99487">
        <ele>1395.33</ele>
        <time>2015-08-30T08:18:00Z</time>
      </trkpt>
      <trkpt lat="45.21908" lon="5.9947">
        <ele>1392.23</ele>
        <time>2015-08-30T08:18:16Z</time>
      </trkpt>
      <trkpt lat="45.21894" lon="5.99452">
        <ele>1393.56</ele>
        <time>2015-08-30T08:18:30Z</time>
      </trkpt>
      <trkpt lat="45.21889" lon="5.99426">
        <ele>1402</ele>
        <time>2015-08-30T08:18:46Z</time>
      </trkpt>
      <trkpt lat="45.21885" lon="5.994">
        <ele>1399.67</ele>
        <time>2015-08-30T08:19:04Z</time>
      </trkpt>
      <trkpt lat="45.21872" lon="5.99382">
        <ele>1398.83</ele>
        <time>2015-08-30T08:19:22Z</time>
      </trkpt>
      <trkpt lat="45.21861" lon="5.99362">
        <ele>1405.63</ele>
        <time>2015-08-30T08:19:42Z</time>
      </trkpt>
      <trkpt lat="45.2186" lon="5.99335">
        <ele>1406.7</ele>
        <time>2015-08-30T08:20:00Z</time>
      </trkpt>
      <trkpt lat="45.21858" lon="5.99309">
        <ele>1407.36</ele>
        <time>2015-08-30T08:20:18Z</time>
      </trkpt>
      <trkpt lat="45.21848" lon="5.99287">
        <ele>1403.75</ele>
        <time>2015-08-30T08:20:32Z</time>
      </trkpt>
      <trkpt lat="45.21837" lon="5.99265">
        <ele>1403.07</ele>
        <time>2015-08-30T08:20:46Z</time>
      </trkpt>
      <trkpt lat="45.21828" lon="5.99241">
        <ele>1408.79</ele>
        <time>2015-08-30T08:21:02Z</time>
      </trkpt>
      <trkpt lat="45.21815" lon="5.9922">
        <ele>1413.35</ele>
        <time>2015-08-30T08:21:20Z</time>
      </trkpt>
      <trkpt lat="45.21807" lon="5.99195">
        <ele>1415.79</ele>
        <time>2015-08-30T08:21:36Z</time>
      </trkpt>
      <trkpt lat="45.21803" lon="5.99169">
        <ele>1425.79</ele>
        <time>2015-08-30T08:21:56Z</time>
      </trkpt>
      <trkpt lat="45.21787" lon="5.99154">
        <ele>1423.31</ele>
        <time>2015-08-30T08:22:10Z</time>
      </trkpt>
      <trkpt lat="45.21772" lon="5.99138">
        <ele>1423.85</ele>
        <time>2015-08-30T08:22:26Z</time>
      </trkpt>
      <trkpt lat="45.21758" lon="5.99119">
        <ele>1420.02</ele>
        <time>2015-08-30T08:22:44Z</time>
      </trkpt>
      <trkpt lat="45.21753" lon="5.99095">
        <ele>1420.06</ele>
        <time>2015-08-30T08:23:04Z</time>
      </trkpt>
      <trkpt lat="45.21756" lon="5.99068">
        <ele>1425.87</ele>
        <time>2015-08-30T08:23:34Z</time>
      </trkpt>
      <trkpt lat="45.21756" lon="5.9904">
        <ele>1426.69</ele>
        <time>2015-08-30T08:24:11Z</time>
      </trkpt>
      <trkpt lat="45.21737" lon="5.99024">
        <ele>1432.76</ele>
        <time>2015-08-30T08:24:45Z</time>
      </trkpt>
      <trkpt lat="45.21719" lon="5.99019">
        <ele>1441.14</ele>
        <time>2015-08-30T08:25:09Z</time>
      </trkpt>
      <trkpt lat="45.21699" lon="5.99005">
        <ele>1432.9</ele>
        <time>2015-08-30T08:25:31Z</time>
      </trkpt>
      <trkpt lat="45.21685" lon="5.98982">
        <ele>1435.68</ele>
        <time>2015-08-30T08:25:47Z</time>
      </trkpt>
      <trkpt lat="45.21671" lon="5.98959">
        <ele>1439.29</ele>
        <time>2015-08-30T08:26:05Z</time>
      </trkpt>
      <trkpt lat="45.21658" lon="5.98941">
        <ele>1444.52</ele>
        <time>2015-08-30T08:26:29Z</time>
      </trkpt>
      <trkpt lat="45.21642" lon="5.98927">
        <ele>1445.62</ele>
        <time>2015-08-30T08:26:49Z</time>
      </trkpt>
      <trkpt lat="45.21629" lon="5.98908">
        <ele>1448.07</ele>
        <time>2015-08-30T08:27:13Z</time>
      </trkpt>
      <trkpt lat="45.2162" lon="5.98885">
        <ele>1452.77</ele>
        <time>2015-08-30T08:27:35Z</time>
      </trkpt>
      <trkpt lat="45.2161" lon="5.98861">
        <ele>1458.98</ele>
        <time>2015-08-30T08:28:01Z</time>
      </trkpt>
      <trkpt lat="45.21603" lon="5.98836">
        <ele>1465.15</ele>
        <time>2015-08-30T08:28:31Z</time>
      </trkpt>
      <trkpt lat="45.21591" lon="5.98815">
        <ele>1469.02</ele>
        <time>2015-08-30T08:28:57Z</time>
      </trkpt>
      <trkpt lat="45.21585" lon="5.9879">
        <ele>1467.44</ele>
        <time>2015-08-30T08:29:23Z</time>
      </trkpt>
      <trkpt lat="45.21573" lon="5.9877">
        <ele>1479.46</ele>
        <time>2015-08-30T08:30:01Z</time>
      </trkpt>
      <trkpt lat="45.21566" lon="5.98745">
        <ele>1483.22</ele>
        <time>2015-08-30T08:30:29Z</time>
      </trkpt>
      <trkpt lat="45.21552" lon="5.98725">
        <ele>1487.09</ele>
        <time>2015-08-30T08:30:59Z</time>
      </trkpt>
      <trkpt lat="45.21536" lon="5.9871">
        <ele>1494.13</ele>
        <time>2015-08-30T08:31:35Z</time>
      </trkpt>
      <trkpt lat="45.21538" lon="5.98683">
        <ele>1500.37</ele>
        <time>2015-08-30T08:32:45Z</time>
      </trkpt>
      <trkpt lat="45.21555" lon="5.98674">
        <ele>1509.48</ele>
        <time>2015-08-30T08:33:17Z</time>
      </trkpt>
      <trkpt lat="45.21577" lon="5.98673">
        <ele>1514.96</ele>
        <time>2015-08-30T08:33:25Z</time>
      </trkpt>
      <trkpt lat="45.21595" lon="5.98679">
        <ele>1521.72</ele>
        <time>2015-08-30T08:34:03Z</time>
      </trkpt>
      <trkpt lat="45.21615" lon="5.98681">
        <ele>1524.22</ele>
        <time>2015-08-30T08:34:25Z</time>
      </trkpt>
      <trkpt lat="45.21632" lon="5.98694">
        <ele>1536.3</ele>
        <time>2015-08-30T08:34:55Z</time>
      </trkpt>
      <trkpt lat="45.2164" lon="5.98669">
        <ele>1541.49</ele>
        <time>2015-08-30T08:35:35Z</time>
      </trkpt>
      <trkpt lat="45.21633" lon="5.98643">
        <ele>1537.61</ele>
        <time>2015-08-30T08:36:35Z</time>
      </trkpt>
      <trkpt lat="45.2163" lon="5.98613">
        <ele>1543.92</ele>
        <time>2015-08-30T08:37:03Z</time>
      </trkpt>
      <trkpt lat="45.21619" lon="5.98592">
        <ele>1551.6</ele>
        <time>2015-08-30T08:37:27Z</time>
      </trkpt>
      <trkpt lat="45.21606" lon="5.98569">
        <ele>1568.26</ele>
        <time>2015-08-30T08:37:57Z</time>
      </trkpt>
      <trkpt lat="45.21595" lon="5.98548">
        <ele>1571.74</ele>
        <time>2015-08-30T08:38:17Z</time>
      </trkpt>
      <trkpt lat="45.2159" lon="5.98523">
        <ele>1573.99</ele>
        <time>2015-08-30T08:39:31Z</time>
      </trkpt>
      <trkpt lat="45.21568" lon="5.98509">
        <ele>1584.24</ele>
        <time>2015-08-30T08:39:49Z</time>
      </trkpt>
      <trkpt lat="45.21552" lon="5.98492">
        <ele>1586.8</ele>
        <time>2015-08-30T08:40:15Z</time>
      </trkpt>
      <trkpt lat="45.21539" lon="5.9847">
        <ele>1589.84</ele>
        <time>2015-08-30T08:40:35Z</time>
      </trkpt>
      <trkpt lat="45.21559" lon="5.98462">
        <ele>1596.45</ele>
        <time>2015-08-30T08:41:15Z</time>
      </trkpt>
      <trkpt lat="45.21577" lon="5.98464">
        <ele>1599.99</ele>
        <time>2015-08-30T08:41:37Z</time>
      </trkpt>
      <trkpt lat="45.21594" lon="5.98455">
        <ele>1600.08</ele>
        <time>2015-08-30T08:42:01Z</time>
      </trkpt>
      <trkpt lat="45.21588" lon="5.9843">
        <ele>1617.06</ele>
        <time>2015-08-30T08:43:21Z</time>
      </trkpt>
      <trkpt lat="45.21572" lon="5.98416">
        <ele>1618.35</ele>
        <time>2015-08-30T08:43:53Z</time>
      </trkpt>
      <trkpt lat="45.21557" lon="5.98401">
        <ele>1618.91</ele>
        <time>2015-08-30T08:44:11Z</time>
      </trkpt>
      <trkpt lat="45.21544" lon="5.98383">
        <ele>1624.49</ele>
        <time>2015-08-30T08:44:31Z</time>
      </trkpt>
      <trkpt lat="45.21561" lon="5.98374">
        <ele>1640.05</ele>
        <time>2015-08-30T08:45:43Z</time>
      </trkpt>
      <trkpt lat="45.21582" lon="5.98371">
        <ele>1642.86</ele>
        <time>2015-08-30T08:46:25Z</time>
      </trkpt>
      <trkpt lat="45.21575" lon="5.98346">
        <ele>1650.68</ele>
        <time>2015-08-30T08:47:23Z</time>
      </trkpt>
      <trkpt lat="45.21561" lon="5.98324">
        <ele>1648.15</ele>
        <time>2015-08-30T08:47:51Z</time>
      </trkpt>
      <trkpt lat="45.21547" lon="5.98304">
        <ele>1662.78</ele>
        <time>2015-08-30T08:48:19Z</time>
      </trkpt>
      <trkpt lat="45.21532" lon="5.98288">
        <ele>1664.46</ele>
        <time>2015-08-30T08:48:33Z</time>
      </trkpt>
      <trkpt lat="45.21516" lon="5.98273">
        <ele>1668.96</ele>
        <time>2015-08-30T08:48:51Z</time>
      </trkpt>
      <trkpt lat="45.21496" lon="5.98263">
        <ele>1678.55</ele>
        <time>2015-08-30T08:49:47Z</time>
      </trkpt>
      <trkpt lat="45.2149" lon="5.98237">
        <ele>1681.97</ele>
        <time>2015-08-30T08:50:29Z</time>
      </trkpt>
      <trkpt lat="45.2149" lon="5.9821">
        <ele>1684.6</ele>
        <time>2015-08-30T08:50:55Z</time>
      </trkpt>
      <trkpt lat="45.21479" lon="5.98188">
        <ele>1683.05</ele>
        <time>2015-08-30T08:51:15Z</time>
      </trkpt>
      <trkpt lat="45.21467" lon="5.98166">
        <ele>1693.76</ele>
        <time>2015-08-30T08:55:49Z</time>
      </trkpt>
      <trkpt lat="45.21455" lon="5.98145">
        <ele>1694.9</ele>
        <time>2015-08-30T08:56:07Z</time>
      </trkpt>
      <trkpt lat="45.21442" lon="5.98126">
        <ele>1697.9</ele>
        <time>2015-08-30T08:56:33Z</time>
      </trkpt>
      <trkpt lat="45.21428" lon="5.98106">
        <ele>1702.8</ele>
        <time>2015-08-30T08:57:19Z</time>
      </trkpt>
      <trkpt lat="45.21415" lon="5.98086">
        <ele>1704.51</ele>
        <time>2015-08-30T08:57:39Z</time>
      </trkpt>
      <trkpt lat="45.21397" lon="5.98078">
        <ele>1706.76</ele>
        <time>2015-08-30T08:58:01Z</time>
      </trkpt>
      <trkpt lat="45.21378" lon="5.98085">
        <ele>1709.74</ele>
        <time>2015-08-30T08:58:51Z</time>
      </trkpt>
      <trkpt lat="45.21363" lon="5.98102">
        <ele>1710.83</ele>
        <time>2015-08-30T08:59:09Z</time>
      </trkpt>
      <trkpt lat="45.21357" lon="5.98128">
        <ele>1713.3</ele>
        <time>2015-08-30T08:59:27Z</time>
      </trkpt>
      <trkpt lat="45.21347" lon="5.98151">
        <ele>1713.81</ele>
        <time>2015-08-30T08:59:47Z</time>
      </trkpt>
      <trkpt lat="45.21339" lon="5.98176">
        <ele>1715.16</ele>
        <time>2015-08-30T09:00:07Z</time>
      </trkpt>
      <trkpt lat="45.21328" lon="5.98198">
        <ele>1719.43</ele>
        <time>2015-08-30T09:00:37Z</time>
      </trkpt>
      <trkpt lat="45.21315" lon="5.98218">
        <ele>1721.06</ele>
        <time>2015-08-30T09:00:55Z</time>
      </trkpt>
      <trkpt lat="45.21303" lon="5.98237">
        <ele>1724.21</ele>
        <time>2015-08-30T09:01:13Z</time>
      </trkpt>
      <trkpt lat="45.21289" lon="5.98255">
        <ele>1726.4</ele>
        <time>2015-08-30T09:01:33Z</time>
      </trkpt>
      <trkpt lat="45.21275" lon="5.98273">
        <ele>1726.6</ele>
        <time>2015-08-30T09:01:53Z</time>
      </trkpt>
      <trkpt lat="45.21264" lon="5.98297">
        <ele>1732.36</ele>
        <time>2015-08-30T09:02:13Z</time>
      </trkpt>
      <trkpt lat="45.21256" lon="5.98322">
        <ele>1735.09</ele>
        <time>2015-08-30T09:02:31Z</time>
      </trkpt>
      <trkpt lat="45.21243" lon="5.98346">
        <ele>1735.98</ele>
        <time>2015-08-30T09:02:55Z</time>
      </trkpt>
      <trkpt lat="45.21231" lon="5.98369">
        <ele>1735.35</ele>
        <time>2015-08-30T09:03:13Z</time>
      </trkpt>
      <trkpt lat="45.21223" lon="5.98393">
        <ele>1738.62</ele>
        <time>2015-08-30T09:03:29Z</time>
      </trkpt>
      <trkpt lat="45.21217" lon="5.98418">
        <ele>1734.57</ele>
        <time>2015-08-30T09:03:47Z</time>
      </trkpt>
      <trkpt lat="45.21205" lon="5.9844">
        <ele>1736.71</ele>
        <time>2015-08-30T09:04:13Z</time>
      </trkpt>
      <trkpt lat="45.212" lon="5.98466">
        <ele>1736.82</ele>
        <time>2015-08-30T09:04:35Z</time>
      </trkpt>
      <trkpt lat="45.21208" lon="5.9849">
        <ele>1736.09</ele>
        <time>2015-08-30T09:04:55Z</time>
      </trkpt>
      <trkpt lat="45.21213" lon="5.98515">
        <ele>1739.73</ele>
        <time>2015-08-30T09:05:25Z</time>
      </trkpt>
      <trkpt lat="45.21211" lon="5.98542">
        <ele>1743.02</ele>
        <time>2015-08-30T09:05:55Z</time>
      </trkpt>
      <trkpt lat="45.21212" lon="5.98568">
        <ele>1750.75</ele>
        <time>2015-08-30T09:06:19Z</time>
      </trkpt>
      <trkpt lat="45.21205" lon="5.98593">
        <ele>1757.32</ele>
        <time>2015-08-30T09:06:47Z</time>
      </trkpt>
      <trkpt lat="45.21191" lon="5.98609">
        <ele>1767.91</ele>
        <time>2015-08-30T09:07:23Z</time>
      </trkpt>
      <trkpt lat="45.21174" lon="5.98618">
        <ele>1774.01</ele>
        <time>2015-08-30T09:07:51Z</time>
      </trkpt>
      <trkpt lat="45.21179" lon="5.98592">
        <ele>1770.73</ele>
        <time>2015-08-30T09:08:45Z</time>
      </trkpt>
      <trkpt lat="45.21161" lon="5.98598">
        <ele>1786.82</ele>
        <time>2015-08-30T09:09:21Z</time>
      </trkpt>
      <trkpt lat="45.21146" lon="5.98615">
        <ele>1790.93</ele>
        <time>2015-08-30T09:09:57Z</time>
      </trkpt>
      <trkpt lat="45.21141" lon="5.98641">
        <ele>1788.18</ele>
        <time>2015-08-30T09:10:13Z</time>
      </trkpt>
      <trkpt lat="45.21139" lon="5.98667">
        <ele>1786.01</ele>
        <time>2015-08-30T09:10:49Z</time>
      </trkpt>
      <trkpt lat="45.21144" lon="5.98692">
        <ele>1793.83</ele>
        <time>2015-08-30T09:11:07Z</time>
      </trkpt>
      <trkpt lat="45.21147" lon="5.98719">
        <ele>1797.32</ele>
        <time>2015-08-30T09:11:29Z</time>
      </trkpt>
      <trkpt lat="45.21143" lon="5.98745">
        <ele>1804.65</ele>
        <time>2015-08-30T09:11:55Z</time>
      </trkpt>
      <trkpt lat="45.21144" lon="5.98772">
        <ele>1807.21</ele>
        <time>2015-08-30T09:12:19Z</time>
      </trkpt>
      <trkpt lat="45.21142" lon="5.98798">
        <ele>1813.9</ele>
        <time>2015-08-30T09:12:51Z</time>
      </trkpt>
      <trkpt lat="45.21135" lon="5.98822">
        <ele>1823.09</ele>
        <time>2015-08-30T09:13:29Z</time>
      </trkpt>
      <trkpt lat="45.21125" lon="5.98844">
        <ele>1824.73</ele>
        <time>2015-08-30T09:13:51Z</time>
      </trkpt>
      <trkpt lat="45.21115" lon="5.98822">
        <ele>1829.33</ele>
        <time>2015-08-30T09:14:33Z</time>
      </trkpt>
      <trkpt lat="45.21109" lon="5.98797">
        <ele>1835.67</ele>
        <time>2015-08-30T09:15:03Z</time>
      </trkpt>
      <trkpt lat="45.21108" lon="5.98824">
        <ele>1841.49</ele>
        <time>2015-08-30T09:15:35Z</time>
      </trkpt>
      <trkpt lat="45.21095" lon="5.98845">
        <ele>1844.48</ele>
        <time>2015-08-30T09:16:01Z</time>
      </trkpt>
      <trkpt lat="45.21081" lon="5.98827">
        <ele>1851.35</ele>
        <time>2015-08-30T09:16:43Z</time>
      </trkpt>
      <trkpt lat="45.21074" lon="5.98801">
        <ele>1863.23</ele>
        <time>2015-08-30T09:17:15Z</time>
      </trkpt>
      <trkpt lat="45.21061" lon="5.98821">
        <ele>1876.83</ele>
        <time>2015-08-30T09:18:13Z</time>
      </trkpt>
      <trkpt lat="45.21045" lon="5.98807">
        <ele>1883.72</ele>
        <time>2015-08-30T09:18:55Z</time>
      </trkpt>
      <trkpt lat="45.21032" lon="5.98826">
        <ele>1897.55</ele>
        <time>2015-08-30T09:19:47Z</time>
      </trkpt>
      <trkpt lat="45.21016" lon="5.98841">
        <ele>1910.22</ele>
        <time>2015-08-30T09:20:59Z</time>
      </trkpt>
      <trkpt lat="45.21004" lon="5.98863">
        <ele>1914.92</ele>
        <time>2015-08-30T09:21:21Z</time>
      </trkpt>
      <trkpt lat="45.21002" lon="5.98891">
        <ele>1918.98</ele>
        <time>2015-08-30T09:21:43Z</time>
      </trkpt>
      <trkpt lat="45.20983" lon="5.98889">
        <ele>1926.95</ele>
        <time>2015-08-30T09:22:27Z</time>
      </trkpt>
      <trkpt lat="45.20965" lon="5.98884">
        <ele>1924.57</ele>
        <time>2015-08-30T09:23:15Z</time>
      </trkpt>
      <trkpt lat="45.20944" lon="5.98878">
        <ele>1918.79</ele>
        <time>2015-08-30T09:23:43Z</time>
      </trkpt>
      <trkpt lat="45.20928" lon="5.98866">
        <ele>1910.77</ele>
        <time>2015-08-30T09:24:07Z</time>
      </trkpt>
      <trkpt lat="45.20926" lon="5.98838">
        <ele>1907.26</ele>
        <time>2015-08-30T09:24:27Z</time>
      </trkpt>
      <trkpt lat="45.2092" lon="5.98812">
        <ele>1906.92</ele>
        <time>2015-08-30T09:24:47Z</time>
      </trkpt>
      <trkpt lat="45.20919" lon="5.98785">
        <ele>1906.71</ele>
        <time>2015-08-30T09:25:03Z</time>
      </trkpt>
      <trkpt lat="45.20919" lon="5.9876">
        <ele>1903.13</ele>
        <time>2015-08-30T09:25:19Z</time>
      </trkpt>
      <trkpt lat="45.20914" lon="5.98734">
        <ele>1899.14</ele>
        <time>2015-08-30T09:25:41Z</time>
      </trkpt>
      <trkpt lat="45.20909" lon="5.98725">
        <ele>1920.24</ele>
        <time>2015-08-30T10:36:52Z</time>
      </trkpt>
      <trkpt lat="45.20927" lon="5.9872">
        <ele>1910.92</ele>
        <time>2015-08-30T10:37:57Z</time>
      </trkpt>
      <trkpt lat="45.2093" lon="5.98693">
        <ele>1911.37</ele>
        <time>2015-08-30T10:38:19Z</time>
      </trkpt>
      <trkpt lat="45.20934" lon="5.98666">
        <ele>1913.19</ele>
        <time>2015-08-30T10:38:39Z</time>
      </trkpt>
      <trkpt lat="45.20939" lon="5.98641">
        <ele>1914.65</ele>
        <time>2015-08-30T10:39:07Z</time>
      </trkpt>
      <trkpt lat="45.20943" lon="5.98615">
        <ele>1920.17</ele>
        <time>2015-08-30T10:40:13Z</time>
      </trkpt>
      <trkpt lat="45.20948" lon="5.98591">
        <ele>1922.78</ele>
        <time>2015-08-30T10:40:47Z</time>
      </trkpt>
      <trkpt lat="45.2095" lon="5.98563">
        <ele>1928.55</ele>
        <time>2015-08-30T10:41:17Z</time>
      </trkpt>
      <trkpt lat="45.20952" lon="5.98536">
        <ele>1935.15</ele>
        <time>2015-08-30T10:42:07Z</time>
      </trkpt>
      <trkpt lat="45.20953" lon="5.9851">
        <ele>1934.74</ele>
        <time>2015-08-30T10:42:33Z</time>
      </trkpt>
      <trkpt lat="45.20944" lon="5.98488">
        <ele>1938.82</ele>
        <time>2015-08-30T10:43:19Z</time>
      </trkpt>
      <trkpt lat="45.20931" lon="5.9847">
        <ele>1952.52</ele>
        <time>2015-08-30T10:44:31Z</time>
      </trkpt>
      <trkpt lat="45.20918" lon="5.98452">
        <ele>1959.74</ele>
        <time>2015-08-30T10:46:07Z</time>
      </trkpt>
      <trkpt lat="45.20912" lon="5.98427">
        <ele>1969.68</ele>
        <time>2015-08-30T10:47:11Z</time>
      </trkpt>
      <trkpt lat="45.20917" lon="5.98402">
        <ele>1980.65</ele>
        <time>2015-08-30T10:48:09Z</time>
      </trkpt>
      <trkpt lat="45.20916" lon="5.98377">
        <ele>1993.17</ele>
        <time>2015-08-30T10:49:29Z</time>
      </trkpt>
      <trkpt lat="45.20906" lon="5.98355">
        <ele>2003.74</ele>
        <time>2015-08-30T10:51:33Z</time>
      </trkpt>
      <trkpt lat="45.20912" lon="5.9833">
        <ele>2016.64</ele>
        <time>2015-08-30T10:52:53Z</time>
      </trkpt>
      <trkpt lat="45.2091" lon="5.98304">
        <ele>2033.76</ele>
        <time>2015-08-30T10:54:33Z</time>
      </trkpt>
      <trkpt lat="45.20893" lon="5.98293">
        <ele>2044.24</ele>
        <time>2015-08-30T10:56:43Z</time>
      </trkpt>
      <trkpt lat="45.20876" lon="5.98285">
        <ele>2051.76</ele>
        <time>2015-08-30T10:57:29Z</time>
      </trkpt>
      <trkpt lat="45.20861" lon="5.9827">
        <ele>2063.14</ele>
        <time>2015-08-30T10:58:37Z</time>
      </trkpt>
      <trkpt lat="45.20851" lon="5.98248">
        <ele>2074.72</ele>
        <time>2015-08-30T11:00:01Z</time>
      </trkpt>
      <trkpt lat="45.20865" lon="5.98231">
        <ele>2089.51</ele>
        <time>2015-08-30T11:01:55Z</time>
      </trkpt>
      <trkpt lat="45.20878" lon="5.98213">
        <ele>2093.44</ele>
        <time>2015-08-30T11:02:57Z</time>
      </trkpt>
      <trkpt lat="45.20896" lon="5.98201">
        <ele>2102.15</ele>
        <time>2015-08-30T11:03:49Z</time>
      </trkpt>
      <trkpt lat="45.20913" lon="5.98192">
        <ele>2116.2</ele>
        <time>2015-08-30T11:05:09Z</time>
      </trkpt>
      <trkpt lat="45.2093" lon="5.9818">
        <ele>2126.76</ele>
        <time>2015-08-30T11:05:57Z</time>
      </trkpt>
      <trkpt lat="45.20918" lon="5.98159">
        <ele>2124.6</ele>
        <time>2015-08-30T11:08:25Z</time>
      </trkpt>
      <trkpt lat="45.20921" lon="5.98134">
        <ele>2136.32</ele>
        <time>2015-08-30T11:09:39Z</time>
      </trkpt>
      <trkpt lat="45.20919" lon="5.98108">
        <ele>2142.58</ele>
        <time>2015-08-30T11:10:07Z</time>
      </trkpt>
      <trkpt lat="45.20901" lon="5.98103">
        <ele>2132.15</ele>
        <time>2015-08-30T11:12:03Z</time>
      </trkpt>
      <trkpt lat="45.20884" lon="5.9809">
        <ele>2135.64</ele>
        <time>2015-08-30T11:12:44Z</time>
      </trkpt>
      <trkpt lat="45.20871" lon="5.98072">
        <ele>2138.52</ele>
        <time>2015-08-30T11:13:04Z</time>
      </trkpt>
      <trkpt lat="45.20863" lon="5.98047">
        <ele>2143.71</ele>
        <time>2015-08-30T11:13:40Z</time>
      </trkpt>
      <trkpt lat="45.20857" lon="5.98021">
        <ele>2147.74</ele>
        <time>2015-08-30T11:14:12Z</time>
      </trkpt>
      <trkpt lat="45.20857" lon="5.97995">
        <ele>2146.27</ele>
        <time>2015-08-30T11:14:34Z</time>
      </trkpt>
      <trkpt lat="45.20848" lon="5.97972">
        <ele>2146.78</ele>
        <time>2015-08-30T11:15:04Z</time>
      </trkpt>
      <trkpt lat="45.20834" lon="5.97956">
        <ele>2142.39</ele>
        <time>2015-08-30T11:15:42Z</time>
      </trkpt>
      <trkpt lat="45.20832" lon="5.97931">
        <ele>2146.73</ele>
        <time>2015-08-30T11:18:18Z</time>
      </trkpt>
      <trkpt lat="45.20834" lon="5.97905">
        <ele>2150.71</ele>
        <time>2015-08-30T11:19:44Z</time>
      </trkpt>
      <trkpt lat="45.20833" lon="5.9788">
        <ele>2162.31</ele>
        <time>2015-08-30T11:20:24Z</time>
      </trkpt>
      <trkpt lat="45.20834" lon="5.97854">
        <ele>2165.17</ele>
        <time>2015-08-30T11:21:00Z</time>
      </trkpt>
      <trkpt lat="45.20833" lon="5.97828">
        <ele>2167.47</ele>
        <time>2015-08-30T11:21:50Z</time>
      </trkpt>
      <trkpt lat="45.20834" lon="5.978">
        <ele>2172.82</ele>
        <time>2015-08-30T11:22:30Z</time>
      </trkpt>
      <trkpt lat="45.20834" lon="5.97773">
        <ele>2180.91</ele>
        <time>2015-08-30T11:23:18Z</time>
      </trkpt>
      <trkpt lat="45.20832" lon="5.97747">
        <ele>2185.3</ele>
        <time>2015-08-30T11:26:48Z</time>
      </trkpt>
      <trkpt lat="45.20813" lon="5.97744">
        <ele>2179.71</ele>
        <time>2015-08-30T11:27:28Z</time>
      </trkpt>
      <trkpt lat="45.20822" lon="5.97721">
        <ele>2171.04</ele>
        <time>2015-08-30T11:29:04Z</time>
      </trkpt>
      <trkpt lat="45.20839" lon="5.97707">
        <ele>2162.49</ele>
        <time>2015-08-30T11:30:02Z</time>
      </trkpt>
      <trkpt lat="45.20855" lon="5.97697">
        <ele>2152.8</ele>
        <time>2015-08-30T11:30:44Z</time>
      </trkpt>
      <trkpt lat="45.20871" lon="5.97682">
        <ele>2142.6</ele>
        <time>2015-08-30T11:31:26Z</time>
      </trkpt>
      <trkpt lat="45.20876" lon="5.97656">
        <ele>2128.07</ele>
        <time>2015-08-30T11:32:30Z</time>
      </trkpt>
      <trkpt lat="45.20892" lon="5.97644">
        <ele>2119.28</ele>
        <time>2015-08-30T11:33:10Z</time>
      </trkpt>
      <trkpt lat="45.20899" lon="5.97621">
        <ele>2110.77</ele>
        <time>2015-08-30T11:35:00Z</time>
      </trkpt>
      <trkpt lat="45.20899" lon="5.97594">
        <ele>2102.03</ele>
        <time>2015-08-30T11:35:44Z</time>
      </trkpt>
      <trkpt lat="45.20905" lon="5.9757">
        <ele>2087.14</ele>
        <time>2015-08-30T11:36:42Z</time>
      </trkpt>
      <trkpt lat="45.209" lon="5.97543">
        <ele>2078.88</ele>
        <time>2015-08-30T11:37:46Z</time>
      </trkpt>
      <trkpt lat="45.20913" lon="5.97522">
        <ele>2064.41</ele>
        <time>2015-08-30T11:38:46Z</time>
      </trkpt>
      <trkpt lat="45.20925" lon="5.97502">
        <ele>2050.82</ele>
        <time>2015-08-30T11:39:42Z</time>
      </trkpt>
      <trkpt lat="45.2094" lon="5.97488">
        <ele>2042.2</ele>
        <time>2015-08-30T11:40:18Z</time>
      </trkpt>
      <trkpt lat="45.20956" lon="5.9747">
        <ele>2033.43</ele>
        <time>2015-08-30T11:41:10Z</time>
      </trkpt>
      <trkpt lat="45.20971" lon="5.97454">
        <ele>2027.31</ele>
        <time>2015-08-30T11:41:50Z</time>
      </trkpt>
      <trkpt lat="45.20987" lon="5.97438">
        <ele>2023.45</ele>
        <time>2015-08-30T11:42:08Z</time>
      </trkpt>
      <trkpt lat="45.20991" lon="5.97412">
        <ele>2023.67</ele>
        <time>2015-08-30T11:42:24Z</time>
      </trkpt>
      <trkpt lat="45.21009" lon="5.97419">
        <ele>2030.17</ele>
        <time>2015-08-30T11:42:54Z</time>
      </trkpt>
      <trkpt lat="45.21027" lon="5.97415">
        <ele>2034.45</ele>
        <time>2015-08-30T11:43:28Z</time>
      </trkpt>
      <trkpt lat="45.21045" lon="5.97408">
        <ele>2034.72</ele>
        <time>2015-08-30T11:44:14Z</time>
      </trkpt>
      <trkpt lat="45.2106" lon="5.97394">
        <ele>2032.78</ele>
        <time>2015-08-30T11:44:40Z</time>
      </trkpt>
      <trkpt lat="45.21077" lon="5.97382">
        <ele>2032.86</ele>
        <time>2015-08-30T11:45:16Z</time>
      </trkpt>
      <trkpt lat="45.21096" lon="5.97378">
        <ele>2032.3</ele>
        <time>2015-08-30T11:45:34Z</time>
      </trkpt>
      <trkpt lat="45.21114" lon="5.97367">
        <ele>2028.81</ele>
        <time>2015-08-30T11:46:02Z</time>
      </trkpt>
      <trkpt lat="45.21131" lon="5.97354">
        <ele>2026.43</ele>
        <time>2015-08-30T11:46:22Z</time>
      </trkpt>
      <trkpt lat="45.2115" lon="5.9735">
        <ele>2018.09</ele>
        <time>2015-08-30T11:46:48Z</time>
      </trkpt>
      <trkpt lat="45.21167" lon="5.97356">
        <ele>2010.05</ele>
        <time>2015-08-30T11:47:16Z</time>
      </trkpt>
      <trkpt lat="45.21174" lon="5.9733">
        <ele>2006.38</ele>
        <time>2015-08-30T11:47:44Z</time>
      </trkpt>
      <trkpt lat="45.21191" lon="5.97323">
        <ele>1995.15</ele>
        <time>2015-08-30T11:48:54Z</time>
      </trkpt>
      <trkpt lat="45.21204" lon="5.97342">
        <ele>1983.74</ele>
        <time>2015-08-30T11:49:18Z</time>
      </trkpt>
      <trkpt lat="45.21222" lon="5.97353">
        <ele>1971.6</ele>
        <time>2015-08-30T11:50:40Z</time>
      </trkpt>
      <trkpt lat="45.2124" lon="5.97348">
        <ele>1964.8</ele>
        <time>2015-08-30T11:51:04Z</time>
      </trkpt>
      <trkpt lat="45.21252" lon="5.97368">
        <ele>1959.96</ele>
        <time>2015-08-30T11:51:26Z</time>
      </trkpt>
      <trkpt lat="45.2127" lon="5.97379">
        <ele>1955.78</ele>
        <time>2015-08-30T11:51:48Z</time>
      </trkpt>
      <trkpt lat="45.21283" lon="5.97397">
        <ele>1954.28</ele>
        <time>2015-08-30T11:52:08Z</time>
      </trkpt>
      <trkpt lat="45.21287" lon="5.97424">
        <ele>1952.05</ele>
        <time>2015-08-30T11:52:26Z</time>
      </trkpt>
      <trkpt lat="45.21302" lon="5.97439">
        <ele>1943.36</ele>
        <time>2015-08-30T11:52:58Z</time>
      </trkpt>
      <trkpt lat="45.21317" lon="5.97423">
        <ele>1941.26</ele>
        <time>2015-08-30T11:53:20Z</time>
      </trkpt>
      <trkpt lat="45.21334" lon="5.97413">
        <ele>1933.48</ele>
        <time>2015-08-30T11:53:42Z</time>
      </trkpt>
      <trkpt lat="45.21348" lon="5.9743">
        <ele>1926.47</ele>
        <time>2015-08-30T11:54:02Z</time>
      </trkpt>
      <trkpt lat="45.2136" lon="5.97452">
        <ele>1920.38</ele>
        <time>2015-08-30T11:55:28Z</time>
      </trkpt>
      <trkpt lat="45.21367" lon="5.97477">
        <ele>1912.61</ele>
        <time>2015-08-30T11:55:48Z</time>
      </trkpt>
      <trkpt lat="45.21372" lon="5.97502">
        <ele>1903.83</ele>
        <time>2015-08-30T11:56:06Z</time>
      </trkpt>
      <trkpt lat="45.21376" lon="5.97529">
        <ele>1893.09</ele>
        <time>2015-08-30T11:56:44Z</time>
      </trkpt>
      <trkpt lat="45.21388" lon="5.9755">
        <ele>1884.66</ele>
        <time>2015-08-30T11:57:28Z</time>
      </trkpt>
      <trkpt lat="45.21407" lon="5.97558">
        <ele>1880.21</ele>
        <time>2015-08-30T11:58:04Z</time>
      </trkpt>
      <trkpt lat="45.21407" lon="5.97585">
        <ele>1874.3</ele>
        <time>2015-08-30T11:58:32Z</time>
      </trkpt>
      <trkpt lat="45.2142" lon="5.97606">
        <ele>1871.78</ele>
        <time>2015-08-30T11:58:54Z</time>
      </trkpt>
      <trkpt lat="45.21413" lon="5.97633">
        <ele>1866.32</ele>
        <time>2015-08-30T11:59:24Z</time>
      </trkpt>
      <trkpt lat="45.21406" lon="5.97657">
        <ele>1857.59</ele>
        <time>2015-08-30T12:00:06Z</time>
      </trkpt>
      <trkpt lat="45.21397" lon="5.97681">
        <ele>1847</ele>
        <time>2015-08-30T12:00:34Z</time>
      </trkpt>
      <trkpt lat="45.21377" lon="5.97679">
        <ele>1835.31</ele>
        <time>2015-08-30T12:00:54Z</time>
      </trkpt>
      <trkpt lat="45.21359" lon="5.97674">
        <ele>1827.4</ele>
        <time>2015-08-30T12:01:12Z</time>
      </trkpt>
      <trkpt lat="45.21338" lon="5.97669">
        <ele>1820.42</ele>
        <time>2015-08-30T12:01:32Z</time>
      </trkpt>
      <trkpt lat="45.2132" lon="5.97664">
        <ele>1811.85</ele>
        <time>2015-08-30T12:01:48Z</time>
      </trkpt>
      <trkpt lat="45.21321" lon="5.97691">
        <ele>1806.41</ele>
        <time>2015-08-30T12:02:20Z</time>
      </trkpt>
      <trkpt lat="45.2133" lon="5.97715">
        <ele>1800.59</ele>
        <time>2015-08-30T12:02:48Z</time>
      </trkpt>
      <trkpt lat="45.21337" lon="5.9774">
        <ele>1794.05</ele>
        <time>2015-08-30T12:03:08Z</time>
      </trkpt>
      <trkpt lat="45.21339" lon="5.97766">
        <ele>1790.4</ele>
        <time>2015-08-30T12:03:24Z</time>
      </trkpt>
      <trkpt lat="45.21338" lon="5.97793">
        <ele>1784.23</ele>
        <time>2015-08-30T12:03:42Z</time>
      </trkpt>
      <trkpt lat="45.21343" lon="5.97819">
        <ele>1777.58</ele>
        <time>2015-08-30T12:04:02Z</time>
      </trkpt>
      <trkpt lat="45.21349" lon="5.97843">
        <ele>1769.66</ele>
        <time>2015-08-30T12:04:26Z</time>
      </trkpt>
      <trkpt lat="45.21352" lon="5.97868">
        <ele>1762.82</ele>
        <time>2015-08-30T12:04:56Z</time>
      </trkpt>
      <trkpt lat="45.21359" lon="5.97894">
        <ele>1758.94</ele>
        <time>2015-08-30T12:05:24Z</time>
      </trkpt>
      <trkpt lat="45.21371" lon="5.97915">
        <ele>1755.13</ele>
        <time>2015-08-30T12:05:48Z</time>
      </trkpt>
      <trkpt lat="45.21381" lon="5.97936">
        <ele>1748.15</ele>
        <time>2015-08-30T12:06:18Z</time>
      </trkpt>
      <trkpt lat="45.21394" lon="5.97956">
        <ele>1741.83</ele>
        <time>2015-08-30T12:06:46Z</time>
      </trkpt>
      <trkpt lat="45.21404" lon="5.97977">
        <ele>1734.17</ele>
        <time>2015-08-30T12:07:18Z</time>
      </trkpt>
      <trkpt lat="45.21421" lon="5.9799">
        <ele>1728.26</ele>
        <time>2015-08-30T12:07:52Z</time>
      </trkpt>
      <trkpt lat="45.21435" lon="5.98006">
        <ele>1725.9</ele>
        <time>2015-08-30T12:08:20Z</time>
      </trkpt>
      <trkpt lat="45.21442" lon="5.98032">
        <ele>1717.95</ele>
        <time>2015-08-30T12:08:48Z</time>
      </trkpt>
      <trkpt lat="45.21426" lon="5.98047">
        <ele>1709.08</ele>
        <time>2015-08-30T12:09:22Z</time>
      </trkpt>
      <trkpt lat="45.2141" lon="5.98063">
        <ele>1704.74</ele>
        <time>2015-08-30T12:09:44Z</time>
      </trkpt>
      <trkpt lat="45.2142" lon="5.98088">
        <ele>1701.08</ele>
        <time>2015-08-30T12:10:34Z</time>
      </trkpt>
      <trkpt lat="45.21434" lon="5.98106">
        <ele>1701.11</ele>
        <time>2015-08-30T12:10:50Z</time>
      </trkpt>
      <trkpt lat="45.21449" lon="5.98125">
        <ele>1696.94</ele>
        <time>2015-08-30T12:11:10Z</time>
      </trkpt>
      <trkpt lat="45.21463" lon="5.98144">
        <ele>1694.38</ele>
        <time>2015-08-30T12:11:28Z</time>
      </trkpt>
      <trkpt lat="45.21474" lon="5.98166">
        <ele>1693.69</ele>
        <time>2015-08-30T12:11:44Z</time>
      </trkpt>
      <trkpt lat="45.21485" lon="5.98188">
        <ele>1690.57</ele>
        <time>2015-08-30T12:12:02Z</time>
      </trkpt>
      <trkpt lat="45.21489" lon="5.98213">
        <ele>1684.98</ele>
        <time>2015-08-30T12:12:22Z</time>
      </trkpt>
      <trkpt lat="45.2149" lon="5.98239">
        <ele>1680.33</ele>
        <time>2015-08-30T12:12:42Z</time>
      </trkpt>
      <trkpt lat="45.21499" lon="5.98262">
        <ele>1671.77</ele>
        <time>2015-08-30T12:13:28Z</time>
      </trkpt>
      <trkpt lat="45.21517" lon="5.98272">
        <ele>1669.02</ele>
        <time>2015-08-30T12:13:52Z</time>
      </trkpt>
      <trkpt lat="45.21535" lon="5.98283">
        <ele>1662.7</ele>
        <time>2015-08-30T12:14:14Z</time>
      </trkpt>
      <trkpt lat="45.21547" lon="5.98304">
        <ele>1660.01</ele>
        <time>2015-08-30T12:14:30Z</time>
      </trkpt>
      <trkpt lat="45.21561" lon="5.98319">
        <ele>1658.33</ele>
        <time>2015-08-30T12:15:02Z</time>
      </trkpt>
      <trkpt lat="45.21575" lon="5.98335">
        <ele>1656.31</ele>
        <time>2015-08-30T12:15:32Z</time>
      </trkpt>
      <trkpt lat="45.21589" lon="5.98351">
        <ele>1651.57</ele>
        <time>2015-08-30T12:15:54Z</time>
      </trkpt>
      <trkpt lat="45.21572" lon="5.98365">
        <ele>1639.94</ele>
        <time>2015-08-30T12:16:42Z</time>
      </trkpt>
      <trkpt lat="45.2155" lon="5.98364">
        <ele>1637.98</ele>
        <time>2015-08-30T12:17:04Z</time>
      </trkpt>
      <trkpt lat="45.21558" lon="5.98388">
        <ele>1618.87</ele>
        <time>2015-08-30T12:18:02Z</time>
      </trkpt>
      <trkpt lat="45.21575" lon="5.9841">
        <ele>1612.46</ele>
        <time>2015-08-30T12:18:20Z</time>
      </trkpt>
      <trkpt lat="45.21592" lon="5.98426">
        <ele>1612.91</ele>
        <time>2015-08-30T12:18:42Z</time>
      </trkpt>
      <trkpt lat="45.21609" lon="5.98435">
        <ele>1607.25</ele>
        <time>2015-08-30T12:19:00Z</time>
      </trkpt>
      <trkpt lat="45.21594" lon="5.98453">
        <ele>1598.87</ele>
        <time>2015-08-30T12:19:50Z</time>
      </trkpt>
      <trkpt lat="45.21576" lon="5.98456">
        <ele>1594.87</ele>
        <time>2015-08-30T12:20:12Z</time>
      </trkpt>
      <trkpt lat="45.21557" lon="5.98454">
        <ele>1595.35</ele>
        <time>2015-08-30T12:20:26Z</time>
      </trkpt>
      <trkpt lat="45.21558" lon="5.98481">
        <ele>1588.01</ele>
        <time>2015-08-30T12:21:22Z</time>
      </trkpt>
      <trkpt lat="45.21575" lon="5.98494">
        <ele>1584.62</ele>
        <time>2015-08-30T12:22:02Z</time>
      </trkpt>
      <trkpt lat="45.21592" lon="5.98505">
        <ele>1576.59</ele>
        <time>2015-08-30T12:22:16Z</time>
      </trkpt>
      <trkpt lat="45.21608" lon="5.98525">
        <ele>1571.87</ele>
        <time>2015-08-30T12:22:44Z</time>
      </trkpt>
      <trkpt lat="45.21609" lon="5.98552">
        <ele>1572.39</ele>
        <time>2015-08-30T12:23:32Z</time>
      </trkpt>
      <trkpt lat="45.21623" lon="5.98572">
        <ele>1566.39</ele>
        <time>2015-08-30T12:23:48Z</time>
      </trkpt>
      <trkpt lat="45.21626" lon="5.986">
        <ele>1546.25</ele>
        <time>2015-08-30T12:24:26Z</time>
      </trkpt>
      <trkpt lat="45.21637" lon="5.98621">
        <ele>1537.08</ele>
        <time>2015-08-30T12:24:44Z</time>
      </trkpt>
      <trkpt lat="45.2164" lon="5.98648">
        <ele>1537.33</ele>
        <time>2015-08-30T12:25:08Z</time>
      </trkpt>
      <trkpt lat="45.2165" lon="5.98671">
        <ele>1535.53</ele>
        <time>2015-08-30T12:25:26Z</time>
      </trkpt>
      <trkpt lat="45.21631" lon="5.9868">
        <ele>1531.08</ele>
        <time>2015-08-30T12:25:54Z</time>
      </trkpt>
      <trkpt lat="45.21613" lon="5.98679">
        <ele>1529.81</ele>
        <time>2015-08-30T12:26:12Z</time>
      </trkpt>
      <trkpt lat="45.21593" lon="5.98679">
        <ele>1519.21</ele>
        <time>2015-08-30T12:26:36Z</time>
      </trkpt>
      <trkpt lat="45.21575" lon="5.98676">
        <ele>1528.57</ele>
        <time>2015-08-30T12:26:58Z</time>
      </trkpt>
      <trkpt lat="45.21556" lon="5.9868">
        <ele>1527.72</ele>
        <time>2015-08-30T12:27:14Z</time>
      </trkpt>
      <trkpt lat="45.21542" lon="5.98699">
        <ele>1511.76</ele>
        <time>2015-08-30T12:27:58Z</time>
      </trkpt>
      <trkpt lat="45.21551" lon="5.98723">
        <ele>1497.12</ele>
        <time>2015-08-30T12:28:18Z</time>
      </trkpt>
      <trkpt lat="45.21565" lon="5.98743">
        <ele>1483.77</ele>
        <time>2015-08-30T12:28:56Z</time>
      </trkpt>
      <trkpt lat="45.21577" lon="5.98761">
        <ele>1480.56</ele>
        <time>2015-08-30T12:29:20Z</time>
      </trkpt>
      <trkpt lat="45.21586" lon="5.98785">
        <ele>1475.78</ele>
        <time>2015-08-30T12:29:42Z</time>
      </trkpt>
      <trkpt lat="45.21594" lon="5.98809">
        <ele>1467.02</ele>
        <time>2015-08-30T12:30:02Z</time>
      </trkpt>
      <trkpt lat="45.21605" lon="5.98831">
        <ele>1460.75</ele>
        <time>2015-08-30T12:30:20Z</time>
      </trkpt>
      <trkpt lat="45.21616" lon="5.98858">
        <ele>1453.98</ele>
        <time>2015-08-30T12:30:42Z</time>
      </trkpt>
      <trkpt lat="45.21627" lon="5.98878">
        <ele>1451.83</ele>
        <time>2015-08-30T12:31:04Z</time>
      </trkpt>
      <trkpt lat="45.21639" lon="5.989">
        <ele>1451.27</ele>
        <time>2015-08-30T12:31:20Z</time>
      </trkpt>
      <trkpt lat="45.21651" lon="5.9892">
        <ele>1446.47</ele>
        <time>2015-08-30T12:31:38Z</time>
      </trkpt>
      <trkpt lat="45.21666" lon="5.98936">
        <ele>1435.85</ele>
        <time>2015-08-30T12:32:20Z</time>
      </trkpt>
      <trkpt lat="45.21685" lon="5.98949">
        <ele>1429.27</ele>
        <time>2015-08-30T12:32:42Z</time>
      </trkpt>
      <trkpt lat="45.21698" lon="5.98969">
        <ele>1425.72</ele>
        <time>2015-08-30T12:32:58Z</time>
      </trkpt>
      <trkpt lat="45.21715" lon="5.98985">
        <ele>1418.15</ele>
        <time>2015-08-30T12:33:14Z</time>
      </trkpt>
      <trkpt lat="45.21733" lon="5.98996">
        <ele>1417.86</ele>
        <time>2015-08-30T12:33:30Z</time>
      </trkpt>
      <trkpt lat="45.21747" lon="5.99013">
        <ele>1408.73</ele>
        <time>2015-08-30T12:33:50Z</time>
      </trkpt>
      <trkpt lat="45.21765" lon="5.99032">
        <ele>1408.56</ele>
        <time>2015-08-30T12:34:06Z</time>
      </trkpt>
      <trkpt lat="45.21759" lon="5.99057">
        <ele>1411.08</ele>
        <time>2015-08-30T12:34:28Z</time>
      </trkpt>
      <trkpt lat="45.21749" lon="5.99082">
        <ele>1409</ele>
        <time>2015-08-30T12:35:10Z</time>
      </trkpt>
      <trkpt lat="45.21756" lon="5.99105">
        <ele>1409.58</ele>
        <time>2015-08-30T12:35:32Z</time>
      </trkpt>
      <trkpt lat="45.21766" lon="5.99131">
        <ele>1413.55</ele>
        <time>2015-08-30T12:36:02Z</time>
      </trkpt>
      <trkpt lat="45.21782" lon="5.99146">
        <ele>1406.59</ele>
        <time>2015-08-30T12:36:36Z</time>
      </trkpt>
      <trkpt lat="45.21802" lon="5.99168">
        <ele>1419.98</ele>
        <time>2015-08-30T12:37:42Z</time>
      </trkpt>
      <trkpt lat="45.21809" lon="5.99192">
        <ele>1416.35</ele>
        <time>2015-08-30T12:37:58Z</time>
      </trkpt>
      <trkpt lat="45.21818" lon="5.99216">
        <ele>1412.57</ele>
        <time>2015-08-30T12:38:18Z</time>
      </trkpt>
      <trkpt lat="45.2183" lon="5.99237">
        <ele>1408.64</ele>
        <time>2015-08-30T12:38:32Z</time>
      </trkpt>
      <trkpt lat="45.2184" lon="5.99259">
        <ele>1405.39</ele>
        <time>2015-08-30T12:38:46Z</time>
      </trkpt>
      <trkpt lat="45.2185" lon="5.99281">
        <ele>1402.39</ele>
        <time>2015-08-30T12:39:00Z</time>
      </trkpt>
      <trkpt lat="45.21858" lon="5.99304">
        <ele>1408.29</ele>
        <time>2015-08-30T12:39:14Z</time>
      </trkpt>
      <trkpt lat="45.2186" lon="5.99337">
        <ele>1410.6</ele>
        <time>2015-08-30T12:39:36Z</time>
      </trkpt>
      <trkpt lat="45.21864" lon="5.99368">
        <ele>1402.31</ele>
        <time>2015-08-30T12:39:54Z</time>
      </trkpt>
      <trkpt lat="45.21879" lon="5.99386">
        <ele>1397.72</ele>
        <time>2015-08-30T12:40:10Z</time>
      </trkpt>
      <trkpt lat="45.21888" lon="5.99408">
        <ele>1391.13</ele>
        <time>2015-08-30T12:40:24Z</time>
      </trkpt>
      <trkpt lat="45.21892" lon="5.99433">
        <ele>1390.49</ele>
        <time>2015-08-30T12:41:58Z</time>
      </trkpt>
      <trkpt lat="45.21904" lon="5.99459">
        <ele>1388.89</ele>
        <time>2015-08-30T12:42:16Z</time>
      </trkpt>
      <trkpt lat="45.21917" lon="5.99476">
        <ele>1385.57</ele>
        <time>2015-08-30T12:42:50Z</time>
      </trkpt>
      <trkpt lat="45.21932" lon="5.99492">
        <ele>1384.78</ele>
        <time>2015-08-30T12:43:10Z</time>
      </trkpt>
      <trkpt lat="45.21946" lon="5.9951">
        <ele>1379.83</ele>
        <time>2015-08-30T12:43:26Z</time>
      </trkpt>
      <trkpt lat="45.21959" lon="5.99529">
        <ele>1382.55</ele>
        <time>2015-08-30T12:43:44Z</time>
      </trkpt>
      <trkpt lat="45.21975" lon="5.99547">
        <ele>1385.44</ele>
        <time>2015-08-30T12:44:00Z</time>
      </trkpt>
      <trkpt lat="45.21992" lon="5.99561">
        <ele>1387.28</ele>
        <time>2015-08-30T12:44:18Z</time>
      </trkpt>
      <trkpt lat="45.22011" lon="5.99568">
        <ele>1381.72</ele>
        <time>2015-08-30T12:44:44Z</time>
      </trkpt>
      <trkpt lat="45.2203" lon="5.99572">
        <ele>1379.47</ele>
        <time>2015-08-30T12:45:00Z</time>
      </trkpt>
      <trkpt lat="45.22051" lon="5.99576">
        <ele>1374.43</ele>
        <time>2015-08-30T12:45:26Z</time>
      </trkpt>
      <trkpt lat="45.22071" lon="5.99585">
        <ele>1375.08</ele>
        <time>2015-08-30T12:45:46Z</time>
      </trkpt>
      <trkpt lat="45.22085" lon="5.99601">
        <ele>1376</ele>
        <time>2015-08-30T12:46:00Z</time>
      </trkpt>
      <trkpt lat="45.22096" lon="5.99625">
        <ele>1375.65</ele>
        <time>2015-08-30T12:46:16Z</time>
      </trkpt>
      <trkpt lat="45.2211" lon="5.99643">
        <ele>1380.74</ele>
        <time>2015-08-30T12:46:30Z</time>
      </trkpt>
      <trkpt lat="45.22129" lon="5.99647">
        <ele>1378.5</ele>
        <time>2015-08-30T12:46:52Z</time>
      </trkpt>
      <trkpt lat="45.22147" lon="5.99655">
        <ele>1372.87</ele>
        <time>2015-08-30T12:47:12Z</time>
      </trkpt>
      <trkpt lat="45.22166" lon="5.99645">
        <ele>1358.5</ele>
        <time>2015-08-30T12:47:42Z</time>
      </trkpt>
      <trkpt lat="45.22182" lon="5.99634">
        <ele>1352.44</ele>
        <time>2015-08-30T12:48:04Z</time>
      </trkpt>
      <trkpt lat="45.222" lon="5.99634">
        <ele>1347.15</ele>
        <time>2015-08-30T12:48:22Z</time>
      </trkpt>
      <trkpt lat="45.22218" lon="5.99642">
        <ele>1338.42</ele>
        <time>2015-08-30T12:48:42Z</time>
      </trkpt>
      <trkpt lat="45.22236" lon="5.99648">
        <ele>1332.04</ele>
        <time>2015-08-30T12:48:58Z</time>
      </trkpt>
      <trkpt lat="45.22252" lon="5.99635">
        <ele>1327.25</ele>
        <time>2015-08-30T12:49:14Z</time>
      </trkpt>
      <trkpt lat="45.22261" lon="5.9961">
        <ele>1322.13</ele>
        <time>2015-08-30T12:49:32Z</time>
      </trkpt>
      <trkpt lat="45.22272" lon="5.99587">
        <ele>1312.31</ele>
        <time>2015-08-30T12:49:48Z</time>
      </trkpt>
      <trkpt lat="45.2229" lon="5.99577">
        <ele>1316.69</ele>
        <time>2015-08-30T12:50:02Z</time>
      </trkpt>
      <trkpt lat="45.22308" lon="5.99581">
        <ele>1306.8</ele>
        <time>2015-08-30T12:50:16Z</time>
      </trkpt>
      <trkpt lat="45.22326" lon="5.99594">
        <ele>1303.04</ele>
        <time>2015-08-30T12:50:30Z</time>
      </trkpt>
      <trkpt lat="45.22341" lon="5.99614">
        <ele>1304.95</ele>
        <time>2015-08-30T12:50:42Z</time>
      </trkpt>
      <trkpt lat="45.22357" lon="5.99626">
        <ele>1310</ele>
        <time>2015-08-30T12:50:52Z</time>
      </trkpt>
      <trkpt lat="45.22372" lon="5.99641">
        <ele>1311.72</ele>
        <time>2015-08-30T12:51:02Z</time>
      </trkpt>
      <trkpt lat="45.22386" lon="5.99657">
        <ele>1313.68</ele>
        <time>2015-08-30T12:51:18Z</time>
      </trkpt>
      <trkpt lat="45.22409" lon="5.99659">
        <ele>1299.22</ele>
        <time>2015-08-30T12:51:38Z</time>
      </trkpt>
      <trkpt lat="45.22431" lon="5.99645">
        <ele>1294.58</ele>
        <time>2015-08-30T12:51:46Z</time>
      </trkpt>
      <trkpt lat="45.22446" lon="5.99626">
        <ele>1293.73</ele>
        <time>2015-08-30T12:51:54Z</time>
      </trkpt>
      <trkpt lat="45.22459" lon="5.99601">
        <ele>1291.94</ele>
        <time>2015-08-30T12:52:06Z</time>
      </trkpt>
      <trkpt lat="45.22477" lon="5.99581">
        <ele>1291.37</ele>
        <time>2015-08-30T12:52:22Z</time>
      </trkpt>
      <trkpt lat="45.22484" lon="5.99553">
        <ele>1288.16</ele>
        <time>2015-08-30T12:52:34Z</time>
      </trkpt>
      <trkpt lat="45.22491" lon="5.9953">
        <ele>1285.25</ele>
        <time>2015-08-30T12:52:46Z</time>
      </trkpt>
      <trkpt lat="45.22498" lon="5.99505">
        <ele>1281.76</ele>
        <time>2015-08-30T12:53:02Z</time>
      </trkpt>
      <trkpt lat="45.22506" lon="5.99478">
        <ele>1282.35</ele>
        <time>2015-08-30T12:53:18Z</time>
      </trkpt>
      <trkpt lat="45.22508" lon="5.99449">
        <ele>1286.09</ele>
        <time>2015-08-30T12:53:32Z</time>
      </trkpt>
      <trkpt lat="45.22507" lon="5.99422">
        <ele>1285.13</ele>
        <time>2015-08-30T12:53:44Z</time>
      </trkpt>
      <trkpt lat="45.2252" lon="5.99403">
        <ele>1289.42</ele>
        <time>2015-08-30T12:54:00Z</time>
      </trkpt>
      <trkpt lat="45.22534" lon="5.99385">
        <ele>1292.47</ele>
        <time>2015-08-30T12:54:16Z</time>
      </trkpt>
      <trkpt lat="45.22554" lon="5.9938">
        <ele>1291.49</ele>
        <time>2015-08-30T12:56:28Z</time>
      </trkpt>
      <trkpt lat="45.22576" lon="5.99383">
        <ele>1291.32</ele>
        <time>2015-08-30T12:56:46Z</time>
      </trkpt>
      <trkpt lat="45.22597" lon="5.99388">
        <ele>1289.97</ele>
        <time>2015-08-30T12:57:10Z</time>
      </trkpt>
      <trkpt lat="45.22616" lon="5.99394">
        <ele>1288.94</ele>
        <time>2015-08-30T12:57:24Z</time>
      </trkpt>
      <trkpt lat="45.22636" lon="5.994">
        <ele>1291.52</ele>
        <time>2015-08-30T12:57:38Z</time>
      </trkpt>
      <trkpt lat="45.22656" lon="5.99406">
        <ele>1295.7</ele>
        <time>2015-08-30T12:57:50Z</time>
      </trkpt>
      <trkpt lat="45.22646" lon="5.99429">
        <ele>1295.47</ele>
        <time>2015-08-30T12:58:30Z</time>
      </trkpt>
    </trkseg>
  </trk>
</gpx>